Accueil
METAR-TAF:

METAR-TAF

Aéroports :

Aéroport de Nouadhibou

Nouadhibou, Mauritanie

latitude: 20-56N, longitude: 017-02W, altitude: 5 m

Observation

Le bulletin a été fait il y a 36 minutes, à 08:00 UTC
Vent 18 kt de nord/nord-est
Température 19°C
Humidité 78%
Pression 1014 hPa
Visibilité 10 km ou plus
pas de nuages en-dessous de 1500 mètres et pas de cumulonimbus.

METAR: GQPP 090800Z 02018KT CAVOK 19/15 Q1014 NOSIG

Heure: 08:36 (08:36 UTC)

Prévision

Le bulletin a été fait il y a 9 heures et 36 minutes, à 23:00 UTC
Prévision valable du 09 à 00 UTC au 09 à 24 UTC
Vent 14 kt de nord/nord-est
Visibilité: 8000 m
Evoluant progressivement
du 09 à 13 UTC au 09 à 16 UTC
Vent 15 kt de nord/nord-ouest

TAF: GQPP 082300Z 0900/0924 03014KT 8000 NSC BECMG 0913/0916 33015KT

Observations et prévisions météorologiques de plus de 4000 aéroports (messages METAR et TAF).

Les stations disponibles sont représentées par des disques jaunes et rouges sur la carte.

Passer la souris dessus pour voir le nom de la station.

Cliquer dessus pour voir les observations et prévisions météorologiques.

Pour changer de carte: cliquez sur les boutons verts avec une croix noire pour zoomer, sur le bouton vert avec un tiret pour effectuer un zoom arrière, ou sur les flèches vertes pour les cartes adjacentes.


METAR-TAF: